createdAt,value
2023-04-28T00:00:26.323Z,100333.28
2023-04-28T00:03:01.038Z,100321.97
2023-04-28T00:05:36.556Z,100332.00
2023-04-28T00:08:09.380Z,100338.88
2023-04-28T00:10:43.169Z,100342.47
2023-04-28T00:13:17.808Z,100340.84
2023-04-28T00:15:50.182Z,100344.44
2023-04-28T00:18:26.488Z,100351.31
2023-04-28T00:21:02.090Z,100360.97
2023-04-28T00:23:34.765Z,100354.09
2023-04-28T00:26:11.363Z,100352.09
2023-04-28T00:28:43.264Z,100352.47
2023-04-28T00:31:30.205Z,100353.31
2023-04-28T00:34:05.667Z,100364.97
2023-04-28T00:36:37.253Z,100361.34
2023-04-28T00:39:11.284Z,100356.50
2023-04-28T00:41:59.188Z,100346.03
2023-04-28T00:44:30.696Z,100362.13
2023-04-28T00:47:05.059Z,100366.59
2023-04-28T00:49:36.225Z,100367.41
2023-04-28T00:52:09.277Z,100366.22
2023-04-28T00:54:40.681Z,100371.88
2023-04-28T00:57:13.386Z,100372.25
2023-04-28T00:59:43.679Z,100371.47
2023-04-28T01:02:18.034Z,100368.25
2023-04-28T01:04:49.207Z,100375.50
2023-04-28T01:07:19.543Z,100377.13
2023-04-28T01:09:49.717Z,100378.75
2023-04-28T01:12:21.747Z,100381.56
2023-04-28T01:14:52.888Z,100377.13
2023-04-28T01:17:23.355Z,100388.06
2023-04-28T01:19:53.519Z,100383.19
2023-04-28T01:22:23.630Z,100392.47
2023-04-28T01:24:55.774Z,100388.84
2023-04-28T01:27:26.835Z,100394.50
2023-04-28T01:29:57.733Z,100398.13
2023-04-28T01:32:28.265Z,100393.69
2023-04-28T01:34:58.246Z,100392.47
2023-04-28T01:37:28.617Z,100392.47
2023-04-28T01:40:00.873Z,100392.09
2023-04-28T01:42:31.053Z,100383.63
2023-04-28T01:45:01.412Z,100386.03
2023-04-28T01:47:31.544Z,100389.66
2023-04-28T01:50:02.156Z,100395.28
2023-04-28T01:52:32.668Z,100388.84
2023-04-28T01:55:05.023Z,100388.84
2023-04-28T01:57:35.930Z,100390.88
2023-04-28T02:00:07.323Z,100394.50
2023-04-28T02:02:38.065Z,100392.47
2023-04-28T02:05:09.313Z,100396.13
2023-04-28T02:07:39.812Z,100399.75
2023-04-28T02:10:12.785Z,100394.09
2023-04-28T02:12:43.308Z,100391.28
2023-04-28T02:15:14.922Z,100385.63
2023-04-28T02:17:45.232Z,100400.94
2023-04-28T02:20:16.102Z,100396.13
2023-04-28T02:22:46.111Z,100394.50
2023-04-28T02:25:18.236Z,100392.88
2023-04-28T02:27:48.412Z,100396.91
2023-04-28T02:30:18.788Z,100389.63
2023-04-28T02:32:48.724Z,100389.19
2023-04-28T02:35:19.537Z,100396.88
2023-04-28T02:37:49.888Z,100391.63
2023-04-28T02:40:21.718Z,100391.63
2023-04-28T02:42:52.128Z,100388.38
2023-04-28T02:45:22.719Z,100388.78
2023-04-28T02:47:53.043Z,100385.13
2023-04-28T02:50:23.038Z,100393.59
2023-04-28T02:52:52.592Z,100399.22
2023-04-28T02:55:25.338Z,100407.69
2023-04-28T02:57:55.553Z,100412.91
2023-04-28T03:00:25.696Z,100414.13
2023-04-28T03:02:55.979Z,100425.81
2023-04-28T03:05:26.376Z,100426.22
2023-04-28T03:07:57.171Z,100427.41
2023-04-28T03:10:29.487Z,100424.94
2023-04-28T03:12:59.535Z,100427.38
2023-04-28T03:15:29.944Z,100419.28
2023-04-28T03:18:01.900Z,100412.41
2023-04-28T03:20:32.549Z,100428.91
2023-04-28T03:23:04.139Z,100435.34
2023-04-28T03:25:36.924Z,100430.91
2023-04-28T03:28:07.489Z,100440.94
2023-04-28T03:30:38.196Z,100446.16
2023-04-28T03:33:08.739Z,100435.25
2023-04-28T03:35:39.184Z,100437.63
2023-04-28T03:38:09.402Z,100440.06
2023-04-28T03:40:42.194Z,100451.72
2023-04-28T03:43:11.828Z,100454.13
2023-04-28T03:45:43.114Z,100455.28
2023-04-28T03:48:12.949Z,100462.59
2023-04-28T03:50:42.998Z,100468.25
2023-04-28T03:53:13.068Z,100468.56
2023-04-28T03:55:44.998Z,100462.13
2023-04-28T03:58:15.406Z,100468.13
2023-04-28T04:00:46.027Z,100472.97
2023-04-28T04:03:17.087Z,100468.94
2023-04-28T04:05:48.092Z,100476.56
2023-04-28T04:08:18.303Z,100478.19
2023-04-28T04:10:50.730Z,100480.22
2023-04-28T04:13:21.261Z,100487.84
2023-04-28T04:15:53.084Z,100482.22
2023-04-28T04:18:23.027Z,100488.69
2023-04-28T04:20:54.514Z,100487.47
2023-04-28T04:23:24.810Z,100488.69
2023-04-28T04:25:56.771Z,100487.47
2023-04-28T04:28:27.371Z,100493.13
2023-04-28T04:30:57.863Z,100492.72
2023-04-28T04:33:28.754Z,100494.34
2023-04-28T04:35:59.105Z,100500.00
2023-04-28T04:38:29.028Z,100503.25
2023-04-28T04:41:01.445Z,100500.88
2023-04-28T04:43:31.825Z,100502.13
2023-04-28T04:46:04.396Z,100506.56
2023-04-28T04:48:34.496Z,100501.34
2023-04-28T04:51:04.243Z,100507.81
2023-04-28T04:53:34.576Z,100512.69
2023-04-28T04:56:06.527Z,100510.28
2023-04-28T04:58:36.839Z,100515.56
2023-04-28T05:01:07.099Z,100516.38
2023-04-28T05:03:37.571Z,100512.78
2023-04-28T05:06:08.037Z,100503.13
2023-04-28T05:08:38.800Z,100509.25
2023-04-28T05:11:11.179Z,100513.72
2023-04-28T05:13:41.645Z,100514.97
2023-04-28T05:16:12.115Z,100507.34
2023-04-28T05:18:42.366Z,100509.00
2023-04-28T05:21:13.122Z,100516.69
2023-04-28T05:23:43.146Z,100513.09
2023-04-28T05:26:15.779Z,100515.16
2023-04-28T05:28:46.328Z,100518.41
2023-04-28T05:31:17.295Z,100518.44
2023-04-28T05:33:47.774Z,100522.53
2023-04-28T05:36:18.551Z,100520.94
2023-04-28T05:38:48.627Z,100531.06
2023-04-28T05:41:20.584Z,100534.75
2023-04-28T05:43:51.621Z,100532.78
2023-04-28T05:46:30.073Z,100534.03
2023-04-28T05:49:01.466Z,100531.69
2023-04-28T05:51:31.151Z,100529.31
2023-04-28T05:54:01.841Z,100531.75
2023-04-28T05:56:33.817Z,100535.03
2023-04-28T05:59:05.313Z,100535.47
2023-04-28T06:01:35.434Z,100539.16
2023-04-28T06:04:06.123Z,100537.16
2023-04-28T06:06:36.787Z,100544.88
2023-04-28T06:09:07.276Z,100546.09
2023-04-28T06:11:39.473Z,100542.50
2023-04-28T06:14:09.682Z,100549.00
2023-04-28T06:16:40.071Z,100555.88
2023-04-28T06:19:10.811Z,100554.66
2023-04-28T06:21:42.152Z,100566.38
2023-04-28T06:24:12.527Z,100560.34
2023-04-28T06:26:45.949Z,100571.25
2023-04-28T06:29:16.994Z,100572.06
2023-04-28T06:31:46.933Z,100577.72
2023-04-28T06:34:17.784Z,100576.09
2023-04-28T06:36:48.237Z,100575.28
2023-04-28T06:39:18.544Z,100574.50
2023-04-28T06:41:50.643Z,100578.94
2023-04-28T06:44:21.175Z,100575.72
2023-04-28T06:46:51.217Z,100576.16
2023-04-28T06:49:21.976Z,100585.47
2023-04-28T06:51:51.669Z,100588.69
2023-04-28T06:54:21.210Z,100594.41
2023-04-28T06:56:53.537Z,100594.03
2023-04-28T06:59:23.184Z,100600.09
2023-04-28T07:01:53.673Z,100596.50
2023-04-28T07:04:24.397Z,100597.72
2023-04-28T07:06:54.442Z,100599.72
2023-04-28T07:09:25.026Z,100595.75
2023-04-28T07:11:58.675Z,100599.41
2023-04-28T07:14:29.105Z,100589.31
2023-04-28T07:16:59.523Z,100590.59
2023-04-28T07:19:29.833Z,100594.22
2023-04-28T07:21:59.978Z,100604.75
2023-04-28T07:24:29.870Z,100606.81
2023-04-28T07:27:02.280Z,100601.97
2023-04-28T07:29:35.005Z,100601.19
2023-04-28T07:32:07.503Z,100587.47
2023-04-28T07:34:38.659Z,100606.44
2023-04-28T07:37:09.215Z,100615.00
2023-04-28T07:39:39.853Z,100608.13
2023-04-28T07:42:13.195Z,100605.31
2023-04-28T07:44:43.364Z,100602.50
2023-04-28T07:47:14.095Z,100601.31
2023-04-28T07:49:44.711Z,100606.56
2023-04-28T07:52:14.451Z,100598.91
2023-04-28T07:54:44.440Z,100605.84
2023-04-28T07:57:16.547Z,100600.59
2023-04-28T07:59:46.676Z,100594.94
2023-04-28T08:02:17.740Z,100600.66
2023-04-28T08:04:48.864Z,100609.94
2023-04-28T08:07:19.494Z,100612.00
2023-04-28T08:09:50.352Z,100604.69
2023-04-28T08:12:24.198Z,100609.97
2023-04-28T08:14:54.435Z,100604.31
2023-04-28T08:17:24.674Z,100601.88
2023-04-28T08:19:55.015Z,100615.25
2023-04-28T08:22:25.376Z,100610.78
2023-04-28T08:24:55.705Z,100608.38
2023-04-28T08:27:27.846Z,100599.09
2023-04-28T08:29:58.148Z,100599.88
2023-04-28T08:32:28.710Z,100601.94
2023-04-28T08:34:59.001Z,100618.50
2023-04-28T08:37:30.384Z,100605.19
2023-04-28T08:40:09.984Z,100603.56
2023-04-28T08:42:42.871Z,100599.91
2023-04-28T08:45:17.037Z,100603.59
2023-04-28T08:47:50.004Z,100600.78
2023-04-28T08:50:25.018Z,100600.78
2023-04-28T08:52:57.127Z,100599.56
2023-04-28T08:55:29.314Z,100609.28
2023-04-28T08:58:02.991Z,100610.50
2023-04-28T09:00:32.892Z,100610.50
2023-04-28T09:03:03.610Z,100605.66
2023-04-28T09:05:33.480Z,100608.06
2023-04-28T09:08:06.247Z,100608.91
2023-04-28T09:10:37.305Z,100606.44
2023-04-28T09:13:09.289Z,100607.28
2023-04-28T09:15:41.699Z,100606.06
2023-04-28T09:18:17.395Z,100610.53
2023-04-28T09:20:48.273Z,100604.84
2023-04-28T09:23:21.446Z,100610.53
2023-04-28T09:26:03.861Z,100619.03
2023-04-28T09:28:37.231Z,100620.66
2023-04-28T09:31:07.745Z,100610.09
2023-04-28T09:33:38.681Z,100610.94
2023-04-28T09:36:08.788Z,100606.84
2023-04-28T09:38:46.641Z,100613.75
2023-04-28T09:41:16.964Z,100606.88
2023-04-28T09:43:48.446Z,100610.91
2023-04-28T09:46:32.544Z,100616.19
2023-04-28T09:49:04.524Z,100612.53
2023-04-28T09:51:35.007Z,100602.00
2023-04-28T09:54:06.530Z,100612.53
2023-04-28T09:56:40.637Z,100605.66
2023-04-28T09:59:13.671Z,100620.63
2023-04-28T10:01:46.081Z,100614.97
2023-04-28T10:04:17.799Z,100608.09
2023-04-28T10:06:48.280Z,100612.13
2023-04-28T10:09:19.283Z,100614.16
2023-04-28T10:11:49.741Z,100624.69
2023-04-28T10:14:23.234Z,100608.88
2023-04-28T10:16:55.314Z,100622.66
2023-04-28T10:19:26.302Z,100612.13
2023-04-28T10:22:17.688Z,100612.94
2023-04-28T10:25:22.584Z,100614.97
2023-04-28T10:27:54.012Z,100611.31
2023-04-28T10:30:29.950Z,100618.19
2023-04-28T10:33:27.813Z,100627.13
2023-04-28T10:35:58.473Z,100634.38
2023-04-28T10:38:28.418Z,100626.28
2023-04-28T10:41:02.819Z,100631.97
2023-04-28T10:43:40.848Z,100624.66
2023-04-28T10:46:13.342Z,100635.22
2023-04-28T10:49:10.456Z,100623.47
2023-04-28T10:51:40.574Z,100623.88
2023-04-28T10:54:19.681Z,100626.72
2023-04-28T10:57:23.791Z,100636.44
2023-04-28T10:59:54.591Z,100629.13
2023-04-28T11:02:45.085Z,100639.63
2023-04-28T11:05:22.282Z,100634.81
2023-04-28T11:08:35.033Z,100633.59
2023-04-28T11:11:26.514Z,100638.06
2023-04-28T11:13:58.807Z,100626.72
2023-04-28T11:16:28.898Z,100622.25
2023-04-28T11:19:07.698Z,100624.66
2023-04-28T11:21:37.834Z,100615.38
2023-04-28T11:24:13.515Z,100625.09
2023-04-28T11:26:44.710Z,100625.09
2023-04-28T11:29:16.841Z,100624.25
2023-04-28T11:31:53.042Z,100621.84
2023-04-28T11:34:27.381Z,100627.09
2023-04-28T11:36:58.102Z,100625.47
2023-04-28T11:39:32.321Z,100616.59
2023-04-28T11:42:04.629Z,100628.72
2023-04-28T11:44:35.258Z,100624.66
2023-04-28T11:47:07.800Z,100618.16
2023-04-28T11:49:48.646Z,100618.56
2023-04-28T11:52:18.779Z,100609.63
2023-04-28T11:54:58.330Z,100611.25
2023-04-28T11:57:28.582Z,100616.09
2023-04-28T12:00:20.006Z,100623.41
2023-04-28T12:02:51.411Z,100623.38
2023-04-28T12:05:24.093Z,100614.09
2023-04-28T12:07:54.373Z,100613.25
2023-04-28T12:10:25.000Z,100616.09
2023-04-28T12:12:55.285Z,100622.59
2023-04-28T12:15:25.775Z,100610.44
2023-04-28T12:17:56.398Z,100608.81
2023-04-28T12:20:43.114Z,100615.69
2023-04-28T12:23:13.054Z,100616.50
2023-04-28T12:25:49.829Z,100613.66
2023-04-28T12:28:20.668Z,100625.00
2023-04-28T12:30:50.688Z,100612.84
2023-04-28T12:33:29.380Z,100601.91
2023-04-28T12:36:02.386Z,100603.94
2023-04-28T12:38:34.952Z,100599.47
2023-04-28T12:41:05.622Z,100604.34
2023-04-28T12:43:36.057Z,100604.75
2023-04-28T12:46:06.418Z,100603.91
2023-04-28T12:48:36.904Z,100608.38
2023-04-28T12:51:09.369Z,100610.38
2023-04-28T12:53:39.825Z,100612.81
2023-04-28T12:56:10.622Z,100620.13
2023-04-28T12:58:41.565Z,100614.03
2023-04-28T13:01:11.501Z,100616.44
2023-04-28T13:03:41.458Z,100608.38
2023-04-28T13:06:14.107Z,100602.28
2023-04-28T13:08:45.816Z,100612.41
2023-04-28T13:11:22.879Z,100600.66
2023-04-28T13:13:53.738Z,100612.78
2023-04-28T13:16:25.512Z,100607.50
2023-04-28T13:18:55.623Z,100607.88
2023-04-28T13:21:29.281Z,100605.47
2023-04-28T13:23:59.597Z,100619.63
2023-04-28T13:26:30.691Z,100604.25
2023-04-28T13:29:00.405Z,100613.09
2023-04-28T13:31:30.729Z,100613.50
2023-04-28T13:34:02.486Z,100608.63
2023-04-28T13:36:35.198Z,100606.56
2023-04-28T13:39:06.713Z,100602.09
2023-04-28T13:41:36.312Z,100605.34
2023-04-28T13:44:06.735Z,100612.19
2023-04-28T13:46:36.945Z,100605.31
2023-04-28T13:49:07.727Z,100615.38
2023-04-28T13:51:39.392Z,100622.28
2023-04-28T13:54:11.802Z,100621.88
2023-04-28T13:56:42.697Z,100617.00
2023-04-28T13:59:12.436Z,100615.38
2023-04-28T14:01:42.827Z,100611.72
2023-04-28T14:04:13.464Z,100604.00
2023-04-28T14:06:46.428Z,100620.16
2023-04-28T14:09:16.830Z,100625.81
2023-04-28T14:11:47.327Z,100619.75
2023-04-28T14:14:17.239Z,100614.47
2023-04-28T14:16:48.080Z,100609.59
2023-04-28T14:19:18.890Z,100605.94
2023-04-28T14:21:51.171Z,100608.72
2023-04-28T14:24:20.839Z,100609.09
2023-04-28T14:26:51.372Z,100603.00
2023-04-28T14:29:21.340Z,100619.19
2023-04-28T14:31:51.178Z,100618.75
2023-04-28T14:34:21.411Z,100611.06
2023-04-28T14:36:53.790Z,100619.16
2023-04-28T14:39:24.144Z,100622.75
2023-04-28T14:41:54.522Z,100621.53
2023-04-28T14:44:24.814Z,100621.09
2023-04-28T14:46:55.557Z,100622.72
2023-04-28T14:49:27.192Z,100610.13
2023-04-28T14:52:01.192Z,100626.72
2023-04-28T14:54:31.193Z,100619.81
2023-04-28T14:57:01.356Z,100626.69
2023-04-28T14:59:31.179Z,100616.94
2023-04-28T15:02:01.861Z,100617.75
2023-04-28T15:04:32.010Z,100617.34
2023-04-28T15:07:04.292Z,100621.75
2023-04-28T15:09:34.591Z,100629.00
2023-04-28T15:12:05.115Z,100637.03
2023-04-28T15:14:35.588Z,100632.19
2023-04-28T15:17:06.399Z,100623.69
2023-04-28T15:19:37.339Z,100620.84
2023-04-28T15:22:09.546Z,100628.88
2023-04-28T15:24:39.659Z,100631.66
2023-04-28T15:27:09.715Z,100623.97
2023-04-28T15:29:40.600Z,100627.19
2023-04-28T15:32:10.826Z,100624.75
2023-04-28T15:34:40.959Z,100624.34
2023-04-28T15:37:43.932Z,100621.47
2023-04-28T15:40:17.027Z,100623.88
2023-04-28T15:42:49.640Z,100614.56
2023-04-28T15:45:21.571Z,100625.44
2023-04-28T15:47:53.039Z,100623.78
2023-04-28T15:50:24.508Z,100621.38
2023-04-28T15:52:56.750Z,100615.72
2023-04-28T15:55:27.544Z,100614.50
2023-04-28T15:57:58.368Z,100613.66
2023-04-28T16:00:28.462Z,100614.50
2023-04-28T16:02:58.591Z,100610.84
2023-04-28T16:05:28.962Z,100614.50
2023-04-28T16:08:01.646Z,100617.31
2023-04-28T16:10:32.458Z,100614.88
2023-04-28T16:13:02.685Z,100624.53
2023-04-28T16:15:34.832Z,100620.13
2023-04-28T16:18:05.437Z,100625.75
2023-04-28T16:20:35.818Z,100616.84
2023-04-28T16:23:13.754Z,100613.19
2023-04-28T16:25:44.500Z,100628.94
2023-04-28T16:28:14.356Z,100620.84
2023-04-28T16:30:45.212Z,100630.13
2023-04-28T16:33:16.720Z,100643.03
2023-04-28T16:35:47.226Z,100636.53
2023-04-28T16:38:19.448Z,100639.75
2023-04-28T16:40:49.380Z,100640.16
2023-04-28T16:43:19.992Z,100639.72
2023-04-28T16:45:50.331Z,100646.53
2023-04-28T16:48:22.447Z,100646.50
2023-04-28T16:50:52.463Z,100644.44
2023-04-28T16:53:24.442Z,100649.66
2023-04-28T16:55:54.133Z,100646.81
2023-04-28T16:58:25.288Z,100649.16
2023-04-28T17:00:55.566Z,100657.22
2023-04-28T17:03:26.163Z,100652.38
2023-04-28T17:05:56.450Z,100650.75
2023-04-28T17:08:28.435Z,100649.50
2023-04-28T17:10:58.926Z,100647.09
2023-04-28T17:13:29.213Z,100655.13
2023-04-28T17:16:00.832Z,100659.16
2023-04-28T17:18:37.272Z,100655.50
2023-04-28T17:21:08.230Z,100659.91
2023-04-28T17:23:40.868Z,100669.19
2023-04-28T17:26:10.889Z,100660.28
2023-04-28T17:28:41.480Z,100668.34
2023-04-28T17:31:12.493Z,100668.72
2023-04-28T17:33:42.748Z,100667.06
2023-04-28T17:36:12.973Z,100665.00
2023-04-28T17:38:45.591Z,100676.69
2023-04-28T17:41:15.757Z,100676.25
2023-04-28T17:43:46.473Z,100676.19
2023-04-28T17:46:17.295Z,100675.75
2023-04-28T17:48:47.484Z,100676.13
2023-04-28T17:51:18.241Z,100674.88
2023-04-28T17:53:50.902Z,100675.28
2023-04-28T17:56:20.991Z,100677.28
2023-04-28T17:58:50.731Z,100678.50
2023-04-28T18:01:20.916Z,100674.84
2023-04-28T18:03:52.347Z,100676.03
2023-04-28T18:06:22.849Z,100688.16
2023-04-28T18:08:54.998Z,100676.44
2023-04-28T18:11:27.458Z,100685.69
2023-04-28T18:13:59.137Z,100684.06
2023-04-28T18:16:29.478Z,100688.91
2023-04-28T18:18:59.456Z,100690.09
2023-04-28T18:21:29.857Z,100691.28
2023-04-28T18:24:01.998Z,100687.66
2023-04-28T18:26:31.972Z,100698.13
2023-04-28T18:29:02.222Z,100694.50
2023-04-28T18:31:32.688Z,100688.03
2023-04-28T18:34:03.601Z,100683.16
2023-04-28T18:36:37.283Z,100694.03
2023-04-28T18:39:09.352Z,100692.78
2023-04-28T18:41:40.684Z,100689.88
2023-04-28T18:44:11.210Z,100696.75
2023-04-28T18:46:41.774Z,100701.91
2023-04-28T18:49:13.082Z,100695.44
2023-04-28T18:51:44.135Z,100696.63
2023-04-28T18:54:17.550Z,100687.38
2023-04-28T18:56:48.453Z,100693.41
2023-04-28T18:59:18.278Z,100699.03
2023-04-28T19:01:49.470Z,100698.22
2023-04-28T19:04:20.294Z,100699.03
2023-04-28T19:06:50.730Z,100694.59
2023-04-28T19:09:23.899Z,100700.25
2023-04-28T19:11:54.108Z,100697.41
2023-04-28T19:14:24.315Z,100697.41
2023-04-28T19:16:54.733Z,100698.22
2023-04-28T19:19:25.148Z,100694.59
2023-04-28T19:21:55.976Z,100688.50
2023-04-28T19:24:30.071Z,100690.94
2023-04-28T19:27:02.520Z,100690.16
2023-04-28T19:29:33.154Z,100691.34
2023-04-28T19:32:03.463Z,100689.69
2023-04-28T19:34:33.663Z,100690.91
2023-04-28T19:37:04.378Z,100686.44
2023-04-28T19:39:36.636Z,100684.81
2023-04-28T19:42:07.922Z,100692.47
2023-04-28T19:44:38.613Z,100690.03
2023-04-28T19:47:09.178Z,100683.97
2023-04-28T19:49:39.593Z,100680.69
2023-04-28T19:52:10.639Z,100686.72
2023-04-28T19:54:43.838Z,100685.91
2023-04-28T19:57:13.539Z,100681.44
2023-04-28T19:59:43.512Z,100688.72
2023-04-28T20:02:13.561Z,100688.72
2023-04-28T20:04:44.000Z,100681.09
2023-04-28T20:07:14.498Z,100683.09
2023-04-28T20:09:46.580Z,100685.09
2023-04-28T20:12:17.040Z,100687.09
2023-04-28T20:14:47.550Z,100688.28
2023-04-28T20:17:31.183Z,100679.03
2023-04-28T20:20:01.588Z,100674.97
2023-04-28T20:22:32.042Z,100677.78
2023-04-28T20:25:06.354Z,100680.59
2023-04-28T20:27:36.978Z,100677.78
2023-04-28T20:30:08.996Z,100670.13
2023-04-28T20:32:38.706Z,100675.75
2023-04-28T20:35:09.530Z,100670.94
2023-04-28T20:37:40.093Z,100674.13
2023-04-28T20:40:14.531Z,100667.31
2023-04-28T20:42:44.051Z,100668.50
2023-04-28T20:45:14.589Z,100670.50
2023-04-28T20:47:46.114Z,100671.69
2023-04-28T20:50:16.413Z,100670.88
2023-04-28T20:52:47.533Z,100674.53
2023-04-28T20:55:19.798Z,100672.88
2023-04-28T20:57:49.998Z,100664.81
2023-04-28T21:00:20.187Z,100660.72
2023-04-28T21:02:50.753Z,100654.69
2023-04-28T21:05:21.149Z,100655.88
2023-04-28T21:07:51.521Z,100649.78
2023-04-28T21:10:23.786Z,100653.00
2023-04-28T21:12:55.707Z,100648.91
2023-04-28T21:15:26.217Z,100644.84
2023-04-28T21:17:56.721Z,100645.22
2023-04-28T21:20:26.947Z,100637.91
2023-04-28T21:22:57.315Z,100649.56
2023-04-28T21:25:30.007Z,100649.09
2023-04-28T21:28:01.515Z,100640.25
2023-04-28T21:30:32.367Z,100644.25
2023-04-28T21:33:03.210Z,100637.78
2023-04-28T21:35:33.610Z,100630.50
2023-04-28T21:38:04.014Z,100630.91
2023-04-28T21:40:36.569Z,100632.91
2023-04-28T21:43:07.163Z,100627.63
2023-04-28T21:45:37.728Z,100624.03
2023-04-28T21:48:09.022Z,100620.34
2023-04-28T21:50:39.158Z,100608.66
2023-04-28T21:53:09.386Z,100615.09
2023-04-28T21:55:43.399Z,100611.09
2023-04-28T21:58:13.994Z,100610.28
2023-04-28T22:00:47.565Z,100611.09
2023-04-28T22:03:18.458Z,100610.28
2023-04-28T22:05:49.135Z,100607.47
2023-04-28T22:08:19.927Z,100601.00
2023-04-28T22:10:52.317Z,100602.19
2023-04-28T22:13:23.221Z,100608.66
2023-04-28T22:15:53.182Z,100593.75
2023-04-28T22:18:23.441Z,100590.91
2023-04-28T22:20:53.491Z,100585.28
2023-04-28T22:23:23.539Z,100578.84
2023-04-28T22:25:55.615Z,100586.47
2023-04-28T22:28:25.621Z,100583.22
2023-04-28T22:30:55.988Z,100568.31
2023-04-28T22:33:26.700Z,100561.06
2023-04-28T22:35:57.138Z,100565.91
2023-04-28T22:38:27.700Z,100548.16
2023-04-28T22:40:58.970Z,100555.81
2023-04-28T22:43:31.029Z,100549.75
2023-04-28T22:46:05.122Z,100548.94
2023-04-28T22:48:35.662Z,100538.84
2023-04-28T22:51:05.960Z,100535.59
2023-04-28T22:53:36.184Z,100539.59
2023-04-28T22:56:09.314Z,100540.78
2023-04-28T22:58:39.841Z,100535.91
2023-04-28T23:01:09.629Z,100536.28
2023-04-28T23:03:41.389Z,100530.59
2023-04-28T23:06:11.246Z,100520.91
2023-04-28T23:08:41.506Z,100518.47
2023-04-28T23:11:12.846Z,100508.38
2023-04-28T23:13:43.104Z,100507.97
2023-04-28T23:16:13.009Z,100516.78
2023-04-28T23:18:43.576Z,100503.47
2023-04-28T23:21:14.104Z,100503.84
2023-04-28T23:23:44.350Z,100499.38
2023-04-28T23:26:16.591Z,100507.84
2023-04-28T23:28:46.837Z,100505.03
2023-04-28T23:31:17.136Z,100494.94
2023-04-28T23:33:47.626Z,100504.22
2023-04-28T23:36:18.077Z,100489.31
2023-04-28T23:38:48.319Z,100494.59
2023-04-28T23:41:20.727Z,100488.94
2023-04-28T23:43:52.214Z,100493.75
2023-04-28T23:46:22.512Z,100493.75
2023-04-28T23:48:52.440Z,100493.75
2023-04-28T23:51:22.229Z,100491.75
2023-04-28T23:53:53.117Z,100484.88
2023-04-28T23:56:25.281Z,100489.69
2023-04-28T23:58:55.445Z,100482.81
